createdAt,value
2023-04-30T00:02:36.258Z,18.00
2023-04-30T00:07:42.228Z,18.00
2023-04-30T00:12:44.040Z,18.00
2023-04-30T00:17:45.866Z,18.00
2023-04-30T00:22:47.744Z,18.00
2023-04-30T00:27:49.481Z,18.00
2023-04-30T00:32:51.402Z,18.00
2023-04-30T00:37:53.401Z,18.00
2023-04-30T00:42:56.014Z,17.90
2023-04-30T00:47:57.890Z,17.90
2023-04-30T00:52:59.700Z,17.90
2023-04-30T00:58:01.980Z,17.90
2023-04-30T01:03:04.281Z,17.90
2023-04-30T01:08:06.124Z,17.90
2023-04-30T01:13:15.794Z,17.90
2023-04-30T01:18:28.370Z,17.90
2023-04-30T01:23:35.973Z,17.80
2023-04-30T01:28:38.166Z,17.80
2023-04-30T01:33:40.426Z,17.80
2023-04-30T01:39:01.514Z,17.80
2023-04-30T01:44:21.729Z,17.80
2023-04-30T01:49:23.292Z,17.80
2023-04-30T01:54:29.340Z,17.80
2023-04-30T01:59:39.162Z,17.80
2023-04-30T02:04:40.800Z,17.80
2023-04-30T02:09:42.463Z,17.70
2023-04-30T02:14:44.143Z,17.80
2023-04-30T02:19:45.821Z,17.80
2023-04-30T02:24:47.780Z,17.70
2023-04-30T02:29:49.883Z,17.70
2023-04-30T02:34:51.852Z,17.80
2023-04-30T02:39:54.069Z,17.80
2023-04-30T02:44:56.170Z,17.70
2023-04-30T02:49:57.846Z,17.70
2023-04-30T02:54:59.703Z,17.80
2023-04-30T03:00:02.064Z,17.80
2023-04-30T03:05:04.304Z,17.80
2023-04-30T03:10:06.506Z,17.80
2023-04-30T03:15:08.534Z,17.80
2023-04-30T03:20:10.643Z,17.70
2023-04-30T03:25:12.331Z,17.70
2023-04-30T03:30:14.049Z,17.70
2023-04-30T03:35:16.523Z,17.70
2023-04-30T03:40:18.187Z,17.70
2023-04-30T03:45:19.791Z,17.70
2023-04-30T05:07:47.644Z,17.50
2023-04-30T05:12:49.199Z,17.50
2023-04-30T05:17:50.816Z,17.50
2023-04-30T05:22:52.688Z,17.50
2023-04-30T05:27:54.512Z,17.50
2023-04-30T05:32:56.841Z,17.40
2023-04-30T05:37:58.631Z,17.40
2023-04-30T05:43:00.464Z,17.40
2023-04-30T05:48:02.604Z,17.40
2023-04-30T05:53:04.588Z,17.40
2023-04-30T05:58:06.475Z,17.40
2023-04-30T06:03:08.351Z,17.40
2023-04-30T06:08:09.938Z,17.40
2023-04-30T06:13:11.723Z,17.40
2023-04-30T06:18:14.323Z,17.40
2023-04-30T06:23:16.029Z,17.40
2023-04-30T06:28:17.728Z,17.50
2023-04-30T06:33:19.413Z,17.50
2023-04-30T06:38:21.289Z,17.50
2023-04-30T06:43:22.918Z,17.50
2023-04-30T06:48:24.661Z,17.50
2023-04-30T06:53:26.516Z,17.50
2023-04-30T06:58:28.266Z,17.50
2023-04-30T07:03:30.086Z,17.50
2023-04-30T07:08:31.888Z,17.60
2023-04-30T07:13:33.718Z,17.60
2023-04-30T07:18:35.411Z,17.60
2023-04-30T07:23:37.188Z,17.70
2023-04-30T07:28:38.932Z,17.70
2023-04-30T07:33:40.929Z,17.70
2023-04-30T07:38:42.662Z,17.80
2023-04-30T07:43:44.556Z,17.80
2023-04-30T07:48:46.471Z,17.80
2023-04-30T07:53:48.114Z,17.80
2023-04-30T07:58:49.686Z,17.80
2023-04-30T08:03:51.405Z,17.80
2023-04-30T08:08:53.345Z,17.80
2023-04-30T08:13:55.642Z,17.70
2023-04-30T08:18:57.350Z,17.70
2023-04-30T08:23:59.043Z,17.70
2023-04-30T08:29:00.754Z,17.70
2023-04-30T08:34:02.603Z,17.70
2023-04-30T08:39:04.699Z,17.70
2023-04-30T08:44:08.371Z,17.70
2023-04-30T08:49:10.615Z,17.70
2023-04-30T08:54:12.801Z,17.70
2023-04-30T08:59:14.465Z,17.70
2023-04-30T09:04:16.590Z,17.70
2023-04-30T09:09:18.484Z,17.70
2023-04-30T09:14:24.736Z,17.70
2023-04-30T09:19:27.252Z,17.70
2023-04-30T09:24:45.267Z,17.70
2023-04-30T09:29:47.061Z,17.70
2023-04-30T09:34:48.718Z,17.70
2023-04-30T09:39:51.378Z,17.70
2023-04-30T09:44:53.578Z,17.70
2023-04-30T09:49:55.499Z,17.80
2023-04-30T09:54:57.436Z,17.90
2023-04-30T10:00:00.640Z,18.00
2023-04-30T10:05:02.743Z,18.10
2023-04-30T10:10:14.375Z,18.20
2023-04-30T10:15:18.937Z,18.30
2023-04-30T10:20:21.907Z,18.30
2023-04-30T10:25:23.832Z,18.30
2023-04-30T10:30:26.017Z,18.40
2023-04-30T10:35:29.670Z,18.50
2023-04-30T10:40:36.034Z,18.60
2023-04-30T10:45:38.908Z,18.60
2023-04-30T10:50:45.012Z,18.60
2023-04-30T10:55:49.254Z,18.60
2023-04-30T11:00:51.884Z,18.60
2023-04-30T11:05:53.518Z,18.50
2023-04-30T11:11:00.585Z,18.50
2023-04-30T11:16:04.637Z,18.50
2023-04-30T11:21:08.449Z,18.50
2023-04-30T11:26:10.139Z,18.50
2023-04-30T11:31:13.018Z,18.50
2023-04-30T11:36:15.763Z,18.50
2023-04-30T11:41:17.375Z,18.60
2023-04-30T11:46:19.070Z,18.60
2023-04-30T11:51:22.127Z,18.60
2023-04-30T11:56:25.400Z,18.60
2023-04-30T12:01:27.551Z,18.50
2023-04-30T12:06:29.408Z,18.50
2023-04-30T12:11:31.764Z,18.50
2023-04-30T12:16:40.391Z,18.50
2023-04-30T12:21:44.644Z,18.40
2023-04-30T12:26:47.946Z,18.40
2023-04-30T12:31:50.814Z,18.50
2023-04-30T12:36:52.428Z,18.50
2023-04-30T12:41:54.016Z,18.50
2023-04-30T12:46:57.687Z,18.50
2023-04-30T12:52:03.998Z,18.50
2023-04-30T12:57:07.564Z,18.50
2023-04-30T13:02:13.850Z,18.50
2023-04-30T13:07:15.660Z,18.50
2023-04-30T13:12:17.357Z,18.50
2023-04-30T13:17:18.944Z,18.50
2023-04-30T13:22:20.684Z,18.50
2023-04-30T13:27:22.424Z,18.50
2023-04-30T13:32:24.059Z,18.50
2023-04-30T13:37:26.082Z,18.50
2023-04-30T13:42:27.849Z,18.50
2023-04-30T13:47:29.564Z,18.40
2023-04-30T13:52:31.626Z,18.40
2023-04-30T13:57:33.705Z,18.50
2023-04-30T14:02:35.674Z,18.40
2023-04-30T14:07:37.428Z,18.40
2023-04-30T14:12:39.383Z,18.40
2023-04-30T14:17:40.980Z,18.40
2023-04-30T14:22:42.677Z,18.40
2023-04-30T14:27:44.346Z,18.40
2023-04-30T14:32:46.180Z,18.40
2023-04-30T14:37:47.792Z,18.40
2023-04-30T14:42:50.562Z,18.40
2023-04-30T14:47:52.277Z,18.40
2023-04-30T14:52:53.881Z,18.40
2023-04-30T14:57:55.965Z,18.40
2023-04-30T15:02:57.744Z,18.40
2023-04-30T15:07:59.541Z,18.40
2023-04-30T15:13:03.025Z,18.40
2023-04-30T15:18:05.635Z,18.50
2023-04-30T15:23:08.139Z,18.60
2023-04-30T15:28:10.390Z,18.60
2023-04-30T15:33:12.930Z,18.60
2023-04-30T15:38:14.645Z,18.70
2023-04-30T15:43:16.545Z,18.80
2023-04-30T15:48:18.244Z,18.90
2023-04-30T15:53:19.885Z,19.00
2023-04-30T15:58:22.202Z,19.10
2023-04-30T16:03:24.046Z,19.10
2023-04-30T16:08:25.772Z,19.30
2023-04-30T16:13:27.588Z,19.50
2023-04-30T16:18:29.900Z,19.70
2023-04-30T16:23:31.578Z,19.70
2023-04-30T16:28:33.797Z,19.80
2023-04-30T16:33:35.703Z,19.90
2023-04-30T16:38:37.478Z,19.90
2023-04-30T16:43:39.229Z,20.00
2023-04-30T16:48:41.031Z,20.10
2023-04-30T16:53:43.001Z,20.30
2023-04-30T16:58:44.953Z,20.40
2023-04-30T17:03:47.071Z,20.50
2023-04-30T17:08:48.961Z,20.50
2023-04-30T17:13:50.684Z,20.60
2023-04-30T17:18:52.357Z,20.60
2023-04-30T17:23:54.133Z,20.60
2023-04-30T17:28:55.854Z,20.60
2023-04-30T17:33:57.512Z,20.60
2023-04-30T17:38:59.099Z,20.50
2023-04-30T17:44:01.256Z,20.40
2023-04-30T17:49:04.517Z,20.30
2023-04-30T17:54:06.206Z,20.30
2023-04-30T17:59:08.438Z,20.20
2023-04-30T18:04:10.311Z,20.10
2023-04-30T18:09:12.621Z,20.00
2023-04-30T18:14:14.642Z,20.00
2023-04-30T18:19:16.325Z,19.90
2023-04-30T18:24:19.214Z,19.80
2023-04-30T18:29:20.986Z,19.70
2023-04-30T18:34:22.636Z,19.70
2023-04-30T18:39:24.227Z,19.60
2023-04-30T18:44:31.715Z,19.60
2023-04-30T18:49:33.612Z,19.50
2023-04-30T18:54:35.551Z,19.50
2023-04-30T18:59:39.327Z,19.40
2023-04-30T19:04:40.941Z,19.40
2023-04-30T19:09:45.117Z,19.40
2023-04-30T19:14:47.127Z,19.30
2023-04-30T19:19:50.009Z,19.30
2023-04-30T19:24:52.495Z,19.30
2023-04-30T19:29:54.508Z,19.30
2023-04-30T19:34:56.530Z,19.20
2023-04-30T19:39:58.318Z,19.20
2023-04-30T19:45:00.156Z,19.20
2023-04-30T19:50:01.834Z,19.20
2023-04-30T19:55:03.751Z,19.10
2023-04-30T20:00:06.329Z,19.20
2023-04-30T20:05:10.339Z,19.10
2023-04-30T20:10:12.574Z,19.10
2023-04-30T20:15:14.905Z,19.10
2023-04-30T20:20:17.089Z,19.10
2023-04-30T20:25:19.173Z,19.10
2023-04-30T20:30:20.873Z,19.10
2023-04-30T20:35:23.839Z,19.10
2023-04-30T20:40:25.619Z,19.20
2023-04-30T20:45:28.079Z,19.10
2023-04-30T20:50:29.795Z,19.20
2023-04-30T20:55:31.655Z,19.20
2023-04-30T21:00:33.491Z,19.20
2023-04-30T21:05:35.172Z,19.20
2023-04-30T21:10:37.209Z,19.20
2023-04-30T21:15:39.755Z,19.20
2023-04-30T21:20:41.435Z,19.10
2023-04-30T21:25:43.108Z,19.10
2023-04-30T21:30:44.808Z,19.10
2023-04-30T21:35:46.472Z,19.10
2023-04-30T21:40:48.206Z,19.10
2023-04-30T21:45:50.001Z,19.20
2023-04-30T21:50:51.744Z,19.20
2023-04-30T21:55:53.568Z,19.20
2023-04-30T22:00:55.311Z,19.20
2023-04-30T22:05:57.784Z,19.20
2023-04-30T22:11:00.241Z,19.30
2023-04-30T22:16:02.164Z,19.20
2023-04-30T22:21:03.894Z,19.10
2023-04-30T22:26:09.665Z,19.10
2023-04-30T22:31:11.273Z,19.00
2023-04-30T22:36:12.863Z,19.00
2023-04-30T22:41:14.492Z,19.00
2023-04-30T22:46:16.435Z,18.90
2023-04-30T22:51:18.387Z,18.90
2023-04-30T22:56:19.949Z,18.90
2023-04-30T23:01:21.827Z,18.80
2023-04-30T23:06:23.689Z,18.80
2023-04-30T23:11:25.374Z,18.80
2023-04-30T23:16:27.192Z,18.80
2023-04-30T23:21:29.560Z,18.80
2023-04-30T23:26:31.534Z,18.80
2023-04-30T23:31:33.524Z,18.80
2023-04-30T23:36:35.303Z,18.80
2023-04-30T23:41:37.085Z,18.80
2023-04-30T23:46:38.982Z,18.80
2023-04-30T23:51:40.612Z,18.80
2023-04-30T23:56:42.435Z,18.80
